createdAt,value
2023-01-09T00:04:14.327Z,2.30
2023-01-09T00:09:15.963Z,2.58
2023-01-09T00:14:18.982Z,2.50
2023-01-09T00:19:20.610Z,2.53
2023-01-09T00:24:22.205Z,2.10
2023-01-09T00:29:23.797Z,2.20
2023-01-09T00:34:25.943Z,2.13
2023-01-09T00:39:27.573Z,1.90
2023-01-09T00:44:36.855Z,2.08
2023-01-09T00:49:38.530Z,1.50
2023-01-09T00:54:40.978Z,1.10
2023-01-09T00:59:43.222Z,1.50
2023-01-09T01:05:03.623Z,1.83
2023-01-09T01:10:16.663Z,1.48
2023-01-09T01:15:19.359Z,1.80
2023-01-09T01:20:21.013Z,1.90
2023-01-09T01:25:23.354Z,1.98
2023-01-09T01:30:24.978Z,1.45
2023-01-09T01:35:26.913Z,1.33
2023-01-09T01:40:29.240Z,0.82
2023-01-09T01:45:30.969Z,1.00
2023-01-09T01:50:44.677Z,0.90
2023-01-09T01:56:10.936Z,0.90
2023-01-09T02:01:12.771Z,1.10
2023-01-09T02:06:15.217Z,0.65
2023-01-09T02:11:19.521Z,1.35
2023-01-09T02:16:49.145Z,1.00
2023-01-09T02:22:07.592Z,1.20
2023-01-09T02:27:18.295Z,1.02
2023-01-09T02:32:37.550Z,1.10
2023-01-09T02:37:44.719Z,2.25
2023-01-09T02:42:48.411Z,4.10
2023-01-09T02:47:50.115Z,1.42
2023-01-09T02:53:21.785Z,1.60
2023-01-09T02:58:41.345Z,1.10
2023-01-09T03:04:12.862Z,0.75
2023-01-09T03:09:20.390Z,0.82
2023-01-09T03:14:25.682Z,0.77
2023-01-09T03:19:31.615Z,0.77
2023-01-09T03:24:33.384Z,0.70
2023-01-09T03:29:37.398Z,0.70
2023-01-09T03:34:39.047Z,0.55
2023-01-09T03:39:40.836Z,0.68
2023-01-09T03:44:42.428Z,0.70
2023-01-09T03:49:44.000Z,0.73
2023-01-09T03:54:45.580Z,0.60
2023-01-09T03:59:47.184Z,0.63
2023-01-09T04:04:48.820Z,0.80
2023-01-09T04:09:50.449Z,0.68
2023-01-09T04:14:52.048Z,0.80
2023-01-09T04:19:53.664Z,0.90
2023-01-09T04:24:55.244Z,0.70
2023-01-09T04:29:57.013Z,0.80
2023-01-09T04:34:58.692Z,0.80
2023-01-09T04:40:00.252Z,0.75
2023-01-09T04:45:01.952Z,0.70
2023-01-09T04:50:04.120Z,0.70
2023-01-09T04:55:07.581Z,1.02
2023-01-09T05:00:12.081Z,0.95
2023-01-09T05:05:13.704Z,1.00
2023-01-09T05:10:15.498Z,0.98
2023-01-09T05:15:17.144Z,1.10
2023-01-09T05:20:18.839Z,1.25
2023-01-09T05:25:20.418Z,1.40
2023-01-09T05:30:22.017Z,3.65
2023-01-09T05:35:23.755Z,2.30
2023-01-09T05:40:29.307Z,1.20
2023-01-09T05:45:34.374Z,1.00
2023-01-09T05:50:36.040Z,1.02
2023-01-09T05:55:37.614Z,1.10
2023-01-09T06:00:39.228Z,1.30
2023-01-09T06:05:40.899Z,1.35
2023-01-09T06:10:42.516Z,1.20
2023-01-09T06:15:44.130Z,1.40
2023-01-09T06:20:46.105Z,1.33
2023-01-09T06:25:47.687Z,1.50
2023-01-09T06:30:52.070Z,1.48
2023-01-09T06:35:53.742Z,1.67
2023-01-09T06:40:55.365Z,1.48
2023-01-09T06:45:57.546Z,1.77
2023-01-09T06:50:59.221Z,1.70
2023-01-09T06:56:02.803Z,1.50
2023-01-09T07:01:04.636Z,1.83
2023-01-09T07:06:06.652Z,1.42
2023-01-09T07:11:08.214Z,1.48
2023-01-09T07:16:09.891Z,1.60
2023-01-09T07:21:11.463Z,1.55
2023-01-09T07:26:13.042Z,1.50
2023-01-09T07:31:14.696Z,1.40
2023-01-09T07:36:16.368Z,1.42
2023-01-09T07:41:18.004Z,1.30
2023-01-09T07:46:19.618Z,1.13
2023-01-09T07:51:21.439Z,1.30
2023-01-09T07:56:23.076Z,1.50
2023-01-09T08:01:24.768Z,1.65
2023-01-09T08:06:26.512Z,1.15
2023-01-09T08:11:28.369Z,1.15
2023-01-09T08:16:30.078Z,1.65
2023-01-09T08:21:31.886Z,1.20
2023-01-09T08:26:33.498Z,1.50
2023-01-09T08:31:35.164Z,1.13
2023-01-09T08:36:38.040Z,1.20
2023-01-09T08:41:58.176Z,1.25
2023-01-09T08:47:05.732Z,1.20
2023-01-09T08:52:07.880Z,1.10
2023-01-09T08:57:09.518Z,1.02
2023-01-09T09:02:11.111Z,1.20
2023-01-09T09:07:12.721Z,1.30
2023-01-09T09:12:14.364Z,1.05
2023-01-09T09:17:15.939Z,1.10
2023-01-09T09:22:17.520Z,0.93
2023-01-09T09:27:19.438Z,1.02
2023-01-09T09:32:21.023Z,0.90
2023-01-09T09:37:22.605Z,1.20
2023-01-09T09:42:55.613Z,1.20
2023-01-09T09:48:20.497Z,1.02
2023-01-09T09:53:27.462Z,1.10
2023-01-09T09:58:29.106Z,1.20
2023-01-09T10:03:39.303Z,1.20
2023-01-09T10:08:55.701Z,1.30
2023-01-09T10:14:13.188Z,1.05
2023-01-09T10:19:33.549Z,1.20
2023-01-09T10:24:53.379Z,1.35
2023-01-09T10:30:28.693Z,1.42
2023-01-09T10:35:47.961Z,1.50
2023-01-09T10:41:06.200Z,1.10
2023-01-09T10:46:24.681Z,0.98
2023-01-09T10:51:38.573Z,1.55
2023-01-09T10:56:44.623Z,1.10
2023-01-09T11:01:46.404Z,1.30
2023-01-09T11:06:52.900Z,1.00
2023-01-09T11:11:54.545Z,1.35
2023-01-09T11:16:58.620Z,1.20
2023-01-09T11:22:17.933Z,0.95
2023-01-09T11:27:24.609Z,1.00
2023-01-09T11:32:26.326Z,1.00
2023-01-09T11:37:30.631Z,1.30
2023-01-09T11:42:50.974Z,1.10
2023-01-09T11:47:52.694Z,1.20
2023-01-09T11:53:15.362Z,1.23
2023-01-09T11:58:21.119Z,1.13
2023-01-09T12:03:30.958Z,1.10
2023-01-09T12:08:41.507Z,0.88
2023-01-09T12:14:10.441Z,1.40
2023-01-09T12:19:32.233Z,1.10
2023-01-09T12:24:46.900Z,1.13
2023-01-09T12:30:12.796Z,2.00
2023-01-09T12:35:32.485Z,3.40
2023-01-09T12:40:56.039Z,1.60
2023-01-09T12:46:20.178Z,0.98
2023-01-09T12:51:32.930Z,1.63
2023-01-09T12:56:43.169Z,3.65
2023-01-09T13:01:49.926Z,2.50
2023-01-09T13:07:00.750Z,4.78
2023-01-09T13:12:09.081Z,3.00
2023-01-09T13:17:30.318Z,1.60
2023-01-09T13:22:32.518Z,1.23
2023-01-09T13:27:40.308Z,1.00
2023-01-09T13:33:20.706Z,1.00
2023-01-09T13:38:25.238Z,1.00
2023-01-09T13:43:26.910Z,1.15
2023-01-09T13:48:39.744Z,0.80
2023-01-09T13:53:41.337Z,0.82
2023-01-09T13:58:54.878Z,1.15
2023-01-09T14:04:15.212Z,0.95
2023-01-09T14:09:22.740Z,1.33
2023-01-09T14:14:31.400Z,1.00
2023-01-09T14:19:38.836Z,0.90
2023-01-09T14:24:44.085Z,0.90
2023-01-09T14:29:47.442Z,0.90
2023-01-09T14:35:17.807Z,0.93
2023-01-09T14:40:23.575Z,1.10
2023-01-09T14:45:27.503Z,1.00
2023-01-09T14:50:45.120Z,1.70
2023-01-09T14:55:58.054Z,1.00
2023-01-09T15:01:27.753Z,1.10
2023-01-09T15:06:34.656Z,1.20
2023-01-09T15:11:39.611Z,1.80
2023-01-09T15:16:45.847Z,1.20
2023-01-09T15:22:05.750Z,1.50
2023-01-09T15:27:21.945Z,1.23
2023-01-09T15:32:29.960Z,0.60
2023-01-09T15:37:39.136Z,1.02
2023-01-09T15:42:57.483Z,1.55
2023-01-09T15:48:26.974Z,1.08
2023-01-09T15:53:29.807Z,4.00
2023-01-09T15:58:37.001Z,1.83
2023-01-09T16:03:39.673Z,3.33
2023-01-09T16:08:50.016Z,1.73
2023-01-09T16:13:52.525Z,1.80
2023-01-09T16:18:55.618Z,1.50
2023-01-09T16:24:35.144Z,1.30
2023-01-09T16:29:38.979Z,1.38
2023-01-09T16:34:42.456Z,2.20
2023-01-09T16:40:21.112Z,2.65
2023-01-09T16:45:26.127Z,8.30
2023-01-09T16:50:28.260Z,4.15
2023-01-09T16:55:30.554Z,4.38
2023-01-09T17:00:32.203Z,3.42
2023-01-09T17:05:33.843Z,3.33
2023-01-09T17:10:35.439Z,3.47
2023-01-09T17:15:37.600Z,2.75
2023-01-09T17:20:40.910Z,2.20
2023-01-09T17:26:01.698Z,2.20
2023-01-09T17:31:06.704Z,1.73
2023-01-09T17:36:32.225Z,1.50
2023-01-09T17:41:34.390Z,3.55
2023-01-09T17:46:38.461Z,1.48
2023-01-09T17:51:40.212Z,2.08
2023-01-09T17:56:50.878Z,1.58
2023-01-09T18:01:52.596Z,1.90
2023-01-09T18:06:54.671Z,2.40
2023-01-09T18:11:56.330Z,1.40
2023-01-09T18:16:58.086Z,1.88
2023-01-09T18:21:59.979Z,1.65
2023-01-09T18:27:01.553Z,2.75
2023-01-09T18:32:03.368Z,2.00
2023-01-09T18:37:05.517Z,1.52
2023-01-09T18:42:07.501Z,2.90
2023-01-09T18:47:09.233Z,2.60
2023-01-09T18:52:10.864Z,1.70
2023-01-09T18:57:12.510Z,2.40
2023-01-09T19:02:22.375Z,2.47
2023-01-09T19:07:24.078Z,1.67
2023-01-09T19:12:25.799Z,1.75
2023-01-09T19:17:27.425Z,2.00
2023-01-09T19:22:29.134Z,1.90
2023-01-09T19:27:30.829Z,1.73
2023-01-09T19:32:32.643Z,1.50
2023-01-09T19:37:35.142Z,4.60
2023-01-09T19:42:36.821Z,2.05
2023-01-09T19:47:38.467Z,2.60
2023-01-09T19:52:43.228Z,1.75
2023-01-09T19:57:45.281Z,1.63
2023-01-09T20:02:49.618Z,2.78
2023-01-09T20:07:55.083Z,2.88
2023-01-09T20:12:56.739Z,4.85
2023-01-09T20:17:58.456Z,3.47
2023-01-09T20:23:00.254Z,3.03
2023-01-09T20:28:02.043Z,2.70
2023-01-09T20:33:03.750Z,2.72
2023-01-09T20:38:05.699Z,2.50
2023-01-09T20:43:15.943Z,2.72
2023-01-09T20:48:17.946Z,2.70
2023-01-09T20:53:19.697Z,2.50
2023-01-09T20:58:22.467Z,4.18
2023-01-09T21:03:25.270Z,3.50
2023-01-09T21:08:26.869Z,4.10
2023-01-09T21:13:28.958Z,4.10
2023-01-09T21:18:31.549Z,2.33
2023-01-09T21:23:33.911Z,1.73
2023-01-09T21:28:45.333Z,2.10
2023-01-09T21:33:47.749Z,2.10
2023-01-09T21:38:52.133Z,3.20
2023-01-09T21:44:12.636Z,2.40
2023-01-09T21:49:14.250Z,2.80
2023-01-09T21:54:16.079Z,2.58
2023-01-09T21:59:17.885Z,2.03
2023-01-09T22:04:21.522Z,1.90
2023-01-09T22:09:23.211Z,2.13
2023-01-09T22:14:24.764Z,2.00
2023-01-09T22:19:28.144Z,1.90
2023-01-09T22:24:29.961Z,1.70
2023-01-09T22:29:31.534Z,1.50
2023-01-09T22:34:33.125Z,1.30
2023-01-09T22:39:34.817Z,1.40
2023-01-09T22:44:36.392Z,1.23
2023-01-09T22:49:51.866Z,1.30
2023-01-09T22:54:54.217Z,1.50
2023-01-09T22:59:55.856Z,1.48
2023-01-09T23:05:00.249Z,1.33
2023-01-09T23:10:02.177Z,1.30
2023-01-09T23:15:04.024Z,1.40
2023-01-09T23:20:06.347Z,1.70
2023-01-09T23:25:08.463Z,1.65
2023-01-09T23:30:10.853Z,1.80
2023-01-09T23:35:12.644Z,1.88
2023-01-09T23:40:14.236Z,2.17
2023-01-09T23:45:15.894Z,1.63
2023-01-09T23:50:17.733Z,1.85
2023-01-09T23:55:19.419Z,1.73
